Time;durP1;ratioP1;P1;durP2;ratioP2;P2;SDS_P1;SDS_P2;PMS_P1;PMS_P2;Temp;Humidity;BMP_temperature;BMP_pressure;BME280_temperature;BME280_humidity;BME280_pressure;Samples;Min_cycle;Max_cycle;Signal;HPM_P1;HPM_P2
2022/11/14 06:32:58;;;;;;;59.38;29.90;;;;;;;;;;4967771;28;20459;-59
2022/11/14 06:35:24;;;;;;;54.30;29.98;;;;;;;;;;4974893;28;20035;-59
2022/11/14 06:37:50;;;;;;;61.95;30.45;;;;;;;;;;4974499;28;20382;-59
2022/11/14 06:40:16;;;;;;;68.25;30.83;;;;;;;;;;4974526;28;20034;-59
2022/11/14 06:42:42;;;;;;;59.33;30.27;;;;;;;;;;4974211;28;20106;-60
2022/11/14 06:45:09;;;;;;;63.63;30.00;;;;;;;;;;4974192;28;20030;-58
2022/11/14 06:47:35;;;;;;;55.60;30.50;;;;;;;;;;4974279;28;20355;-75
2022/11/14 06:50:01;;;;;;;62.40;30.05;;;;;;;;;;4974359;28;20035;-59
2022/11/14 06:52:27;;;;;;;57.00;31.90;;;;;;;;;;4973738;28;20030;-58
2022/11/14 06:54:53;;;;;;;57.30;30.98;;;;;;;;;;4974290;28;20521;-58
2022/11/14 06:57:19;;;;;;;59.03;32.08;;;;;;;;;;4973866;28;20066;-59
2022/11/14 06:59:45;;;;;;;57.70;31.17;;;;;;;;;;4974151;28;20102;-58
2022/11/14 07:02:12;;;;;;;53.83;29.40;;;;;;;;;;4974206;28;20564;-58
2022/11/14 07:04:38;;;;;;;52.65;29.55;;;;;;;;;;4974322;28;20399;-60
2022/11/14 07:07:04;;;;;;;53.88;29.38;;;;;;;;;;4974111;28;20093;-59
2022/11/14 07:09:30;;;;;;;59.38;31.35;;;;;;;;;;4974131;28;20113;-58
2022/11/14 07:11:56;;;;;;;61.20;31.92;;;;;;;;;;4973472;28;20665;-59
2022/11/14 07:14:22;;;;;;;55.65;31.38;;;;;;;;;;4973469;28;20165;-59
2022/11/14 07:16:48;;;;;;;56.05;29.67;;;;;;;;;;4974266;28;20035;-58
2022/11/14 07:19:14;;;;;;;50.38;27.83;;;;;;;;;;4974204;28;20481;-71
2022/11/14 07:21:40;;;;;;;46.35;26.80;;;;;;;;;;4974185;28;20029;-61
2022/11/14 07:24:06;;;;;;;53.28;28.83;;;;;;;;;;4973874;28;20046;-62
2022/11/14 07:26:32;;;;;;;47.63;27.75;;;;;;;;;;4973701;28;20091;-58
2022/11/14 07:28:58;;;;;;;50.05;28.17;;;;;;;;;;4974046;28;20039;-59
2022/11/14 07:31:24;;;;;;;49.85;28.00;;;;;;;;;;4973581;28;20035;-56
2022/11/14 07:33:50;;;;;;;51.38;27.65;;;;;;;;;;4973680;28;20065;-58
2022/11/14 07:36:17;;;;;;;53.55;29.98;;;;;;;;;;4973861;28;20030;-58
2022/11/14 07:38:43;;;;;;;53.38;29.92;;;;;;;;;;4973140;28;20026;-58
2022/11/14 07:41:13;;;;;;;52.50;29.83;;;;;;;;;;4973794;28;20501;-59
2022/11/14 07:43:40;;;;;;;51.38;29.67;;;;;;;;;;4973259;28;20030;-58
2022/11/14 07:46:07;;;;;;;52.33;30.38;;;;;;;;;;4973400;28;20034;-58
2022/11/14 09:12:29;;;;;;;52.58;26.60;;;;;;;;;;5088191;23;20317;-58
2022/11/14 09:14:55;;;;;;;43.40;24.75;;;;;;;;;;4952088;28;20035;-63
2022/11/14 09:17:21;;;;;;;42.33;24.15;;;;;;;;;;4952294;29;20031;-58
2022/11/14 09:19:47;;;;;;;45.95;25.23;;;;;;;;;;4952272;29;20035;-59
2022/11/14 09:22:13;;;;;;;45.30;25.38;;;;;;;;;;4951863;29;20055;-58
2022/11/14 09:24:39;;;;;;;48.10;27.23;;;;;;;;;;4935663;29;20483;-58
2022/11/14 09:27:05;;;;;;;46.28;27.15;;;;;;;;;;4952376;29;20038;-58
2022/11/14 09:29:31;;;;;;;44.75;25.20;;;;;;;;;;4952715;29;20042;-58
2022/11/14 09:31:58;;;;;;;51.17;26.63;;;;;;;;;;4952927;29;20111;-58
2022/11/14 09:34:24;;;;;;;52.95;27.13;;;;;;;;;;4935678;29;20047;-59
2022/11/14 09:36:50;;;;;;;41.63;24.63;;;;;;;;;;4952935;29;20030;-62
2022/11/14 09:39:16;;;;;;;43.50;24.85;;;;;;;;;;4952481;29;20468;-58
2022/11/14 09:41:45;;;;;;;47.38;27.52;;;;;;;;;;4952550;29;20032;-60
2022/11/14 09:44:30;;;;;;;48.50;27.25;;;;;;;;;;4952591;29;20041;-68
2022/11/14 09:46:57;;;;;;;50.55;28.05;;;;;;;;;;4952916;29;20027;-58
2022/11/14 09:49:31;;;;;;;48.00;26.75;;;;;;;;;;4952677;29;20078;-58
2022/11/14 09:52:05;;;;;;;47.55;26.52;;;;;;;;;;4952551;29;20407;-60
2022/11/14 09:54:44;;;;;;;45.10;26.90;;;;;;;;;;4952433;29;20475;-60
2022/11/14 09:57:13;;;;;;;44.35;26.25;;;;;;;;;;4952033;29;20042;-57
2022/11/14 09:59:40;;;;;;;47.42;26.75;;;;;;;;;;4952105;29;20043;-56
2022/11/14 10:02:17;;;;;;;45.42;27.45;;;;;;;;;;4952488;29;20471;-62
2022/11/14 10:05:01;;;;;;;43.75;26.92;;;;;;;;;;4952261;29;20027;-57
2022/11/14 10:07:41;;;;;;;49.30;26.95;;;;;;;;;;4952611;29;20039;-57
2022/11/14 10:10:22;;;;;;;44.00;25.95;;;;;;;;;;4952083;29;20039;-57
2022/11/14 10:12:54;;;;;;;47.78;27.02;;;;;;;;;;4951680;28;20055;-57
2022/11/14 10:15:25;;;;;;;43.25;26.65;;;;;;;;;;4951877;29;20027;-64
2022/11/14 10:18:21;;;;;;;44.03;26.60;;;;;;;;;;4951726;29;20150;-62
2022/11/14 10:20:53;;;;;;;46.03;25.88;;;;;;;;;;4855858;29;20154;-58
2022/11/14 10:23:21;;;;;;;46.65;26.15;;;;;;;;;;4858279;29;20045;-57
2022/11/14 10:26:05;;;;;;;43.25;25.83;;;;;;;;;;4858401;29;20178;-58
2022/11/14 10:28:40;;;;;;;47.83;27.33;;;;;;;;;;4858918;29;20041;-58
2022/11/14 10:31:13;;;;;;;45.95;25.73;;;;;;;;;;4858091;29;20120;-64
2022/11/14 10:33:45;;;;;;;45.17;25.63;;;;;;;;;;4859125;29;20037;-57
2022/11/14 10:36:17;;;;;;;40.08;24.25;;;;;;;;;;4859091;29;20075;-59
2022/11/14 10:39:15;;;;;;;44.55;25.38;;;;;;;;;;4858276;29;20050;-69
2022/11/14 10:41:42;;;;;;;43.58;24.98;;;;;;;;;;4839874;29;20110;-73
2022/11/14 10:44:13;;;;;;;42.33;24.75;;;;;;;;;;4839985;29;20525;-71
2022/11/14 10:46:40;;;;;;;39.72;24.55;;;;;;;;;;4840310;29;20067;-70
2022/11/14 10:49:17;;;;;;;40.20;24.20;;;;;;;;;;4840020;29;20049;-68
2022/11/14 10:51:45;;;;;;;42.60;23.88;;;;;;;;;;4840132;29;20038;-64
2022/11/14 10:54:21;;;;;;;37.35;22.48;;;;;;;;;;4840014;29;20029;-63
2022/11/14 10:56:48;;;;;;;39.42;23.50;;;;;;;;;;4849789;29;20093;-59
2022/11/14 10:59:14;;;;;;;39.10;22.25;;;;;;;;;;4880460;29;20501;-59
2022/11/14 11:01:42;;;;;;;37.25;21.98;;;;;;;;;;4885208;29;20025;-67
2022/11/14 11:04:27;;;;;;;39.47;22.63;;;;;;;;;;4889157;29;20119;-62
2022/11/14 11:06:55;;;;;;;38.70;21.80;;;;;;;;;;4884695;29;20041;-62
2022/11/14 11:12:07;;;;;;;36.92;21.98;;;;;;;;;;4901501;29;20545;-60
2022/11/14 11:14:34;;;;;;;36.38;22.42;;;;;;;;;;4914017;29;20044;-70
2022/11/14 13:28:47;;;;;;;22.30;13.43;;;;;;;;;;5005204;23;20054;-62
2022/11/14 13:31:16;;;;;;;24.38;13.45;;;;;;;;;;4893356;29;20059;-63
2022/11/14 13:33:58;;;;;;;28.98;15.98;;;;;;;;;;4893512;29;20036;-63
2022/11/14 13:36:42;;;;;;;21.38;13.82;;;;;;;;;;4893370;29;20058;-62
2022/11/14 13:39:17;;;;;;;23.95;13.63;;;;;;;;;;4893379;29;20153;-66
2022/11/14 13:42:01;;;;;;;23.10;13.90;;;;;;;;;;4893360;29;20096;-62
2022/11/14 13:44:46;;;;;;;29.90;16.35;;;;;;;;;;4893270;29;20032;-62
2022/11/14 13:47:21;;;;;;;27.83;15.43;;;;;;;;;;4893309;29;20060;-63
2022/11/14 13:49:47;;;;;;;30.67;16.95;;;;;;;;;;4893178;29;20082;-62
2022/11/14 13:52:14;;;;;;;26.30;14.30;;;;;;;;;;4893106;29;20100;-62
2022/11/14 13:54:49;;;;;;;25.58;14.63;;;;;;;;;;4892980;29;20141;-62
2022/11/14 13:57:15;;;;;;;21.10;13.57;;;;;;;;;;4895728;29;20064;-62
2022/11/14 13:59:49;;;;;;;23.60;14.00;;;;;;;;;;4896781;29;20120;-62
2022/11/14 14:02:20;;;;;;;23.88;13.75;;;;;;;;;;4896915;29;20033;-63
2022/11/14 14:04:59;;;;;;;17.77;10.10;;;;;;;;;;4896228;29;20680;-63
2022/11/14 14:07:37;;;;;;;25.65;14.02;;;;;;;;;;4955560;28;20089;-66
2022/11/14 14:10:03;;;;;;;26.38;13.88;;;;;;;;;;4974931;28;20043;-64
2022/11/14 14:12:35;;;;;;;22.65;13.95;;;;;;;;;;4975142;28;20050;-64
2022/11/14 14:15:08;;;;;;;23.63;14.82;;;;;;;;;;4974826;28;20042;-69
2022/11/14 14:17:44;;;;;;;23.45;13.23;;;;;;;;;;4975124;28;20110;-61
2022/11/14 14:20:17;;;;;;;21.20;13.10;;;;;;;;;;4974689;28;20518;-63
2022/11/14 14:23:04;;;;;;;22.35;12.90;;;;;;;;;;4974671;28;20059;-66
2022/11/14 14:25:46;;;;;;;24.88;13.57;;;;;;;;;;4975271;28;20130;-63
2022/11/14 14:28:22;;;;;;;22.95;14.25;;;;;;;;;;4956347;28;20055;-61
2022/11/14 14:31:02;;;;;;;20.80;13.63;;;;;;;;;;4956029;29;20031;-59
2022/11/14 14:33:30;;;;;;;21.98;13.82;;;;;;;;;;4955766;29;20491;-60
2022/11/14 14:35:56;;;;;;;25.65;14.52;;;;;;;;;;4955483;29;20423;-60
2022/11/14 14:38:24;;;;;;;26.92;14.55;;;;;;;;;;4955264;29;20031;-62
2022/11/14 14:40:53;;;;;;;27.10;15.48;;;;;;;;;;4955298;29;20027;-60
2022/11/14 14:43:29;;;;;;;28.75;15.50;;;;;;;;;;4955691;29;20020;-60
2022/11/14 14:45:55;;;;;;;29.33;16.73;;;;;;;;;;4955363;29;20035;-60
2022/11/14 14:48:23;;;;;;;33.88;18.15;;;;;;;;;;4956039;29;20027;-60
2022/11/14 14:50:50;;;;;;;34.33;18.30;;;;;;;;;;4955614;29;20031;-60
2022/11/14 14:53:19;;;;;;;39.75;20.70;;;;;;;;;;4955176;29;20035;-61
2022/11/14 14:55:56;;;;;;;37.90;21.10;;;;;;;;;;4955118;29;20038;-60
2022/11/14 14:58:22;;;;;;;49.47;24.15;;;;;;;;;;4954909;29;20043;-60
2022/11/14 15:00:59;;;;;;;45.10;22.25;;;;;;;;;;4955117;29;20086;-60
2022/11/14 15:03:42;;;;;;;50.92;24.17;;;;;;;;;;4949478;29;20027;-60
2022/11/14 15:06:30;;;;;;;48.95;24.35;;;;;;;;;;4940375;29;20027;-61
2022/11/14 15:08:57;;;;;;;47.63;23.33;;;;;;;;;;4944164;29;20039;-61
2022/11/14 15:11:24;;;;;;;45.40;24.17;;;;;;;;;;4940474;29;20115;-61
2022/11/14 15:13:53;;;;;;;35.00;19.48;;;;;;;;;;4942260;29;20064;-66
2022/11/14 15:16:20;;;;;;;33.45;17.88;;;;;;;;;;4944830;29;20038;-61
2022/11/14 15:18:47;;;;;;;27.90;16.83;;;;;;;;;;4945255;29;20031;-63
2022/11/14 15:21:27;;;;;;;30.48;16.33;;;;;;;;;;4943970;29;20487;-61
2022/11/14 15:24:01;;;;;;;27.42;16.05;;;;;;;;;;4942290;29;20538;-61
2022/11/14 15:26:28;;;;;;;22.75;14.57;;;;;;;;;;4941837;29;20040;-60
2022/11/14 15:29:03;;;;;;;27.27;15.13;;;;;;;;;;4942531;29;20054;-63
2022/11/14 15:31:29;;;;;;;29.70;15.35;;;;;;;;;;4942152;29;20028;-61
2022/11/14 15:34:06;;;;;;;27.17;15.40;;;;;;;;;;4943679;29;20057;-60
2022/11/14 15:36:32;;;;;;;30.27;16.58;;;;;;;;;;4945690;29;20067;-67
2022/11/14 15:38:59;;;;;;;34.60;17.77;;;;;;;;;;4943004;29;20039;-60
2022/11/14 15:41:29;;;;;;;35.13;19.42;;;;;;;;;;4942339;29;20506;-61
2022/11/14 15:44:00;;;;;;;39.83;21.05;;;;;;;;;;4940053;29;20034;-61
2022/11/14 15:47:02;;;;;;;38.95;21.02;;;;;;;;;;4942412;29;20107;-61
2022/11/14 15:49:28;;;;;;;36.90;20.43;;;;;;;;;;4881119;29;20049;-64
2022/11/14 15:52:00;;;;;;;35.67;19.50;;;;;;;;;;4881473;29;20045;-61
2022/11/14 15:54:26;;;;;;;28.73;15.77;;;;;;;;;;4881911;29;20057;-61
2022/11/14 15:56:53;;;;;;;34.70;19.35;;;;;;;;;;4877907;29;20108;-61
2022/11/14 15:59:19;;;;;;;35.63;19.48;;;;;;;;;;4875879;29;20073;-61
2022/11/14 16:01:46;;;;;;;32.03;19.10;;;;;;;;;;4875476;29;20584;-61
2022/11/14 16:04:19;;;;;;;39.05;20.52;;;;;;;;;;4875862;29;20048;-58
2022/11/14 16:06:45;;;;;;;41.45;22.35;;;;;;;;;;4875884;29;20112;-58
2022/11/14 16:09:18;;;;;;;48.95;23.77;;;;;;;;;;4880310;29;20463;-58
2022/11/14 16:11:45;;;;;;;47.45;24.23;;;;;;;;;;4875172;29;20065;-59
2022/11/14 16:14:11;;;;;;;45.83;25.75;;;;;;;;;;4878359;29;20063;-58
2022/11/14 16:16:37;;;;;;;45.83;24.35;;;;;;;;;;4884218;29;20037;-58
2022/11/14 16:19:03;;;;;;;49.35;26.60;;;;;;;;;;4884697;29;20402;-60
2022/11/14 16:21:29;;;;;;;51.95;28.17;;;;;;;;;;4884389;29;20179;-58
2022/11/14 16:23:56;;;;;;;50.47;26.98;;;;;;;;;;4924364;29;20164;-59
2022/11/14 16:26:24;;;;;;;47.08;25.35;;;;;;;;;;4942422;29;20050;-58
2022/11/14 16:28:51;;;;;;;49.67;26.38;;;;;;;;;;4940891;29;20849;-59
2022/11/14 16:31:17;;;;;;;48.42;25.98;;;;;;;;;;4942151;29;20034;-63
2022/11/14 16:33:43;;;;;;;47.60;24.75;;;;;;;;;;4942583;29;20026;-59
2022/11/14 16:36:10;;;;;;;51.83;27.90;;;;;;;;;;4942905;29;20099;-63
2022/11/14 16:38:36;;;;;;;48.60;27.17;;;;;;;;;;4943399;29;20176;-59
2022/11/14 16:41:05;;;;;;;47.72;26.60;;;;;;;;;;4946656;29;20106;-68
2022/11/14 16:43:31;;;;;;;49.22;27.42;;;;;;;;;;4947358;29;20030;-59
2022/11/14 16:45:57;;;;;;;48.75;25.75;;;;;;;;;;4945698;29;20062;-67
2022/11/14 16:48:23;;;;;;;46.85;26.30;;;;;;;;;;4941746;29;20778;-59
2022/11/14 16:50:49;;;;;;;51.10;26.48;;;;;;;;;;4942099;29;20027;-61
2022/11/14 16:53:15;;;;;;;53.17;29.38;;;;;;;;;;4943257;29;20026;-65
2022/11/14 16:55:44;;;;;;;46.08;25.20;;;;;;;;;;4941358;29;20031;-59
2022/11/14 16:58:10;;;;;;;37.80;21.65;;;;;;;;;;4941604;29;20031;-59
2022/11/14 17:00:36;;;;;;;37.25;22.42;;;;;;;;;;4933906;29;20035;-59
2022/11/14 17:03:02;;;;;;;38.85;21.42;;;;;;;;;;4944388;29;20034;-60
2022/11/14 17:05:28;;;;;;;39.00;21.88;;;;;;;;;;4942226;29;20392;-59
2022/11/14 17:07:57;;;;;;;37.08;20.80;;;;;;;;;;4941309;29;20024;-59
2022/11/14 17:10:23;;;;;;;39.97;21.83;;;;;;;;;;4941647;29;20039;-59
2022/11/14 17:12:49;;;;;;;37.05;20.95;;;;;;;;;;4943054;29;20026;-59
2022/11/14 17:15:15;;;;;;;36.47;20.35;;;;;;;;;;4942136;29;20016;-60
2022/11/14 17:17:48;;;;;;;36.92;20.20;;;;;;;;;;4941641;29;20026;-60
2022/11/14 17:20:15;;;;;;;36.08;19.33;;;;;;;;;;4942660;29;20027;-65
2022/11/14 17:22:41;;;;;;;38.05;20.60;;;;;;;;;;4942567;29;20060;-65
2022/11/14 17:25:07;;;;;;;36.38;20.50;;;;;;;;;;4940940;29;20030;-60
2022/11/14 17:27:33;;;;;;;38.15;20.98;;;;;;;;;;4942108;29;20055;-59
2022/11/14 17:29:59;;;;;;;39.08;21.73;;;;;;;;;;4942336;29;20130;-61
2022/11/14 17:32:25;;;;;;;36.28;21.73;;;;;;;;;;4944413;29;20107;-60
2022/11/14 17:34:51;;;;;;;39.03;21.90;;;;;;;;;;4946774;29;20050;-60
2022/11/14 17:37:17;;;;;;;41.08;21.55;;;;;;;;;;4945850;29;20034;-59
2022/11/14 17:39:43;;;;;;;38.00;22.17;;;;;;;;;;4944897;29;20019;-60
2022/11/14 17:42:09;;;;;;;36.85;21.05;;;;;;;;;;4945886;29;20035;-60
2022/11/14 17:44:35;;;;;;;41.38;22.05;;;;;;;;;;4945242;29;20024;-60
2022/11/14 17:47:01;;;;;;;38.55;21.85;;;;;;;;;;4942677;29;20032;-60
2022/11/14 17:49:27;;;;;;;37.42;22.50;;;;;;;;;;4956283;29;20027;-58
2022/11/14 17:51:53;;;;;;;42.20;22.75;;;;;;;;;;4946194;29;20376;-59
2022/11/14 17:54:19;;;;;;;38.13;21.83;;;;;;;;;;4944870;29;20027;-59
2022/11/14 17:56:45;;;;;;;44.35;23.55;;;;;;;;;;4944767;29;20610;-68
2022/11/14 17:59:12;;;;;;;43.28;23.80;;;;;;;;;;4945970;29;20114;-59
2022/11/14 18:01:38;;;;;;;44.22;23.80;;;;;;;;;;4944588;29;20376;-67
2022/11/14 18:04:04;;;;;;;42.83;23.70;;;;;;;;;;4945152;29;20384;-59
2022/11/14 18:06:30;;;;;;;42.13;24.48;;;;;;;;;;4946507;29;20146;-66
2022/11/14 18:08:56;;;;;;;48.30;26.15;;;;;;;;;;4946716;29;20476;-59
2022/11/14 18:11:22;;;;;;;47.72;25.90;;;;;;;;;;4940777;29;20036;-61
2022/11/14 18:13:53;;;;;;;45.95;25.60;;;;;;;;;;4936876;29;20172;-60
2022/11/14 18:16:19;;;;;;;44.30;25.13;;;;;;;;;;4936327;29;20027;-61
2022/11/14 18:18:45;;;;;;;49.10;26.67;;;;;;;;;;4936714;29;20060;-60
2022/11/14 18:21:16;;;;;;;45.17;25.60;;;;;;;;;;4936888;29;20058;-60
2022/11/14 18:23:42;;;;;;;46.38;25.20;;;;;;;;;;4936467;29;20039;-60
2022/11/14 18:26:12;;;;;;;45.80;25.77;;;;;;;;;;4936206;29;20023;-60
2022/11/14 18:28:38;;;;;;;50.33;27.63;;;;;;;;;;4936252;29;20131;-58
2022/11/14 18:31:06;;;;;;;56.33;27.88;;;;;;;;;;4936568;29;20420;-59
2022/11/14 18:33:34;;;;;;;51.58;27.10;;;;;;;;;;4936644;29;20042;-58
2022/11/14 18:36:01;;;;;;;47.60;26.88;;;;;;;;;;4943568;29;20039;-58
2022/11/14 18:38:31;;;;;;;57.13;30.23;;;;;;;;;;4936317;29;20044;-59
2022/11/14 18:40:58;;;;;;;56.05;28.95;;;;;;;;;;4936247;29;20020;-58
2022/11/14 18:43:25;;;;;;;49.80;27.80;;;;;;;;;;4935669;29;20038;-60
2022/11/14 18:45:51;;;;;;;51.42;28.88;;;;;;;;;;4935730;29;20083;-59
2022/11/14 18:48:17;;;;;;;51.55;28.83;;;;;;;;;;4935560;29;20452;-59
2022/11/14 18:50:43;;;;;;;51.75;29.05;;;;;;;;;;4935971;29;20031;-60
2022/11/14 18:53:09;;;;;;;52.28;28.52;;;;;;;;;;4935750;29;20035;-59
2022/11/14 18:55:41;;;;;;;52.97;28.48;;;;;;;;;;4936144;29;20086;-64
2022/11/14 18:58:07;;;;;;;60.78;30.58;;;;;;;;;;4935648;29;20563;-58
2022/11/14 19:00:33;;;;;;;59.65;31.65;;;;;;;;;;4936188;29;20050;-59
2022/11/14 19:02:59;;;;;;;66.75;33.42;;;;;;;;;;4936179;29;20024;-59
2022/11/14 19:05:25;;;;;;;62.05;31.92;;;;;;;;;;4936192;29;20028;-60
2022/11/14 19:07:52;;;;;;;62.58;33.75;;;;;;;;;;4935641;29;20404;-60
2022/11/14 19:10:18;;;;;;;59.50;31.65;;;;;;;;;;4935275;29;20075;-60
2022/11/14 19:12:47;;;;;;;62.13;31.65;;;;;;;;;;4935414;29;20036;-60
2022/11/14 19:15:13;;;;;;;65.72;32.70;;;;;;;;;;4935808;29;20039;-60
2022/11/14 19:17:39;;;;;;;62.78;31.48;;;;;;;;;;4918671;29;20031;-60
2022/11/14 19:20:05;;;;;;;64.90;32.28;;;;;;;;;;4935830;29;20031;-60
2022/11/14 19:22:31;;;;;;;67.80;33.88;;;;;;;;;;4935590;29;20681;-58
2022/11/14 19:24:57;;;;;;;68.35;34.80;;;;;;;;;;4935955;29;20148;-63
2022/11/14 19:27:23;;;;;;;64.82;35.67;;;;;;;;;;4935345;29;20507;-60
2022/11/14 19:29:49;;;;;;;71.40;35.50;;;;;;;;;;4935370;29;20381;-59
2022/11/14 19:32:15;;;;;;;69.05;35.17;;;;;;;;;;4935928;29;20111;-59
2022/11/14 19:34:42;;;;;;;69.07;35.17;;;;;;;;;;4935418;29;20058;-59
2022/11/14 19:37:08;;;;;;;68.65;35.38;;;;;;;;;;4934925;29;20039;-68
2022/11/14 19:39:34;;;;;;;73.80;37.72;;;;;;;;;;4934548;29;20206;-58
2022/11/14 19:42:00;;;;;;;81.07;39.30;;;;;;;;;;4934953;29;20480;-58
2022/11/14 19:44:26;;;;;;;80.47;39.80;;;;;;;;;;4935091;29;20083;-64
2022/11/14 19:46:52;;;;;;;74.20;38.92;;;;;;;;;;4934872;29;20083;-60
2022/11/14 19:49:18;;;;;;;74.50;39.42;;;;;;;;;;4934640;29;20476;-60
2022/11/14 19:51:44;;;;;;;76.18;39.35;;;;;;;;;;4934937;29;20073;-61
2022/11/14 19:54:11;;;;;;;73.80;38.63;;;;;;;;;;4934431;29;20136;-64
2022/11/14 19:56:37;;;;;;;79.43;40.15;;;;;;;;;;4935030;29;20106;-61
2022/11/14 19:59:04;;;;;;;78.00;40.25;;;;;;;;;;4933890;29;20082;-60
2022/11/14 20:01:30;;;;;;;86.68;41.13;;;;;;;;;;4932879;29;20023;-59
2022/11/14 20:03:57;;;;;;;80.40;38.90;;;;;;;;;;4933973;29;20504;-60
2022/11/14 20:06:26;;;;;;;70.28;37.47;;;;;;;;;;4934449;29;20095;-60
2022/11/14 20:08:53;;;;;;;73.47;37.17;;;;;;;;;;4933989;29;20035;-58
2022/11/14 20:11:19;;;;;;;66.80;36.05;;;;;;;;;;4934540;29;20027;-68
2022/11/14 20:13:45;;;;;;;70.07;34.92;;;;;;;;;;4934119;29;20824;-68
2022/11/14 20:16:12;;;;;;;60.63;32.67;;;;;;;;;;4934058;29;20998;-67
2022/11/14 20:18:38;;;;;;;64.40;32.45;;;;;;;;;;4934136;29;20473;-59
2022/11/14 20:21:05;;;;;;;63.13;32.50;;;;;;;;;;4934184;29;20063;-59
2022/11/14 20:23:33;;;;;;;64.72;32.08;;;;;;;;;;4934208;29;20031;-60
2022/11/14 20:25:59;;;;;;;60.35;32.03;;;;;;;;;;4932934;29;20504;-59
2022/11/14 20:28:25;;;;;;;63.35;32.40;;;;;;;;;;4932898;29;20036;-59
2022/11/14 20:30:51;;;;;;;59.80;32.42;;;;;;;;;;4933729;29;20024;-64
2022/11/14 20:33:17;;;;;;;58.22;29.88;;;;;;;;;;4933819;29;20471;-62
2022/11/14 20:35:43;;;;;;;63.60;31.23;;;;;;;;;;4934300;29;20466;-60
2022/11/14 20:38:09;;;;;;;58.72;29.30;;;;;;;;;;4934123;29;20032;-68
2022/11/14 20:40:36;;;;;;;52.40;28.52;;;;;;;;;;4934096;29;20023;-59
2022/11/14 20:43:02;;;;;;;57.22;29.45;;;;;;;;;;4934077;29;20586;-64
2022/11/14 20:45:28;;;;;;;52.38;29.75;;;;;;;;;;4934187;29;20023;-62
2022/11/14 20:47:54;;;;;;;52.63;28.77;;;;;;;;;;4933947;29;20039;-61
2022/11/14 20:50:20;;;;;;;53.67;29.02;;;;;;;;;;4934380;29;20211;-62
2022/11/14 20:52:47;;;;;;;57.97;29.98;;;;;;;;;;4934222;29;20578;-60
2022/11/14 20:55:13;;;;;;;64.22;31.23;;;;;;;;;;4934190;29;20039;-60
2022/11/14 20:57:39;;;;;;;57.17;29.40;;;;;;;;;;4933932;29;20042;-60
2022/11/14 21:00:06;;;;;;;58.13;30.00;;;;;;;;;;4934203;29;20424;-61
2022/11/14 21:02:33;;;;;;;57.63;29.75;;;;;;;;;;4933913;29;20118;-61
2022/11/14 21:04:59;;;;;;;62.65;30.92;;;;;;;;;;4934056;29;20444;-61
2022/11/14 21:07:26;;;;;;;56.15;29.48;;;;;;;;;;4934281;29;20031;-61
2022/11/14 21:10:44;;;;;;;61.95;31.17;;;;;;;;;;4933845;29;20123;-62
2022/11/14 21:12:38;;;;;;;57.53;29.02;;;;;;;;;;4934159;29;20392;-61
2022/11/14 21:15:04;;;;;;;56.15;28.83;;;;;;;;;;4942359;29;20023;-67
2022/11/14 21:17:30;;;;;;;52.80;28.23;;;;;;;;;;4942622;29;20520;-61
2022/11/14 21:19:57;;;;;;;50.95;26.45;;;;;;;;;;4941468;29;20035;-61
2022/11/14 21:22:23;;;;;;;46.05;25.33;;;;;;;;;;4942605;29;20034;-61
2022/11/14 21:24:49;;;;;;;50.35;25.20;;;;;;;;;;4933636;29;20031;-67
2022/11/14 21:27:15;;;;;;;48.92;26.08;;;;;;;;;;4933288;29;20048;-62
2022/11/14 21:29:41;;;;;;;47.83;24.83;;;;;;;;;;4933198;29;20067;-61
2022/11/14 21:32:07;;;;;;;49.25;25.83;;;;;;;;;;4933184;29;20028;-61
2022/11/14 21:34:33;;;;;;;57.22;27.17;;;;;;;;;;4940287;29;20078;-61
2022/11/14 21:36:59;;;;;;;47.92;26.38;;;;;;;;;;4935731;29;20043;-61
2022/11/14 21:39:25;;;;;;;51.20;27.48;;;;;;;;;;4933076;29;20028;-62
2022/11/14 21:41:52;;;;;;;51.67;26.52;;;;;;;;;;4933372;29;20088;-72
2022/11/14 21:44:20;;;;;;;53.97;26.63;;;;;;;;;;4950870;29;20027;-63
2022/11/14 21:46:47;;;;;;;50.13;27.65;;;;;;;;;;4934797;29;20442;-70
2022/11/14 21:49:13;;;;;;;49.78;26.58;;;;;;;;;;4952480;29;20038;-65
2022/11/14 21:51:40;;;;;;;53.05;26.73;;;;;;;;;;4952776;29;20055;-70
2022/11/14 21:54:06;;;;;;;46.97;25.42;;;;;;;;;;4952642;29;20051;-61
2022/11/14 21:56:32;;;;;;;49.38;25.42;;;;;;;;;;4951695;29;20023;-62
2022/11/14 21:59:11;;;;;;;45.67;24.92;;;;;;;;;;4953007;29;20392;-60
2022/11/14 22:04:33;;;;;;;47.55;25.95;;;;;;;;;;4953251;29;20045;-61
2022/11/14 22:07:01;;;;;;;42.78;23.35;;;;;;;;;;4952713;29;20098;-61
2022/11/14 22:09:27;;;;;;;44.90;22.90;;;;;;;;;;4952279;29;20070;-61
2022/11/14 22:11:53;;;;;;;43.40;23.25;;;;;;;;;;4952303;29;20027;-68
2022/11/14 22:14:19;;;;;;;46.28;23.33;;;;;;;;;;4952311;29;20439;-72
2022/11/14 22:16:46;;;;;;;44.85;22.75;;;;;;;;;;4953013;28;20387;-62
2022/11/14 22:19:12;;;;;;;44.80;22.27;;;;;;;;;;4955871;29;20054;-62
2022/11/14 22:21:38;;;;;;;42.33;22.35;;;;;;;;;;4956030;29;20027;-61
2022/11/14 22:24:04;;;;;;;38.38;21.50;;;;;;;;;;4955756;29;20027;-62
2022/11/14 22:26:30;;;;;;;47.55;22.85;;;;;;;;;;4937467;29;20055;-61
2022/11/14 22:28:56;;;;;;;45.67;23.42;;;;;;;;;;4955459;29;20122;-60
2022/11/14 22:31:23;;;;;;;43.15;22.08;;;;;;;;;;4953574;29;20510;-61
2022/11/14 22:33:50;;;;;;;42.63;22.95;;;;;;;;;;4944831;29;20111;-61
2022/11/14 22:36:17;;;;;;;41.42;22.92;;;;;;;;;;4955694;29;20035;-60
2022/11/14 22:38:44;;;;;;;42.35;22.75;;;;;;;;;;4955614;29;20427;-60
2022/11/14 22:41:14;;;;;;;42.40;22.65;;;;;;;;;;4955649;29;20030;-72
